sensor_id;sensor_type;location;lat;lon;timestamp;P1;durP1;ratioP1;P2;durP2;ratioP2
8159;SDS011;27404;52.398;9.646;2023-02-11T00:00:40;48.90;;;27.63;;
8159;SDS011;27404;52.398;9.646;2023-02-11T00:03:06;55.23;;;28.30;;
8159;SDS011;27404;52.398;9.646;2023-02-11T00:05:32;49.87;;;27.70;;
8159;SDS011;27404;52.398;9.646;2023-02-11T00:07:58;56.10;;;27.97;;
8159;SDS011;27404;52.398;9.646;2023-02-11T00:10:24;54.13;;;28.03;;
8159;SDS011;27404;52.398;9.646;2023-02-11T00:12:49;57.30;;;27.80;;
8159;SDS011;27404;52.398;9.646;2023-02-11T00:15:14;59.53;;;29.10;;
8159;SDS011;27404;52.398;9.646;2023-02-11T00:17:40;52.87;;;27.67;;
8159;SDS011;27404;52.398;9.646;2023-02-11T00:20:05;56.13;;;27.80;;
8159;SDS011;27404;52.398;9.646;2023-02-11T00:22:31;56.13;;;28.43;;
8159;SDS011;27404;52.398;9.646;2023-02-11T00:24:56;58.37;;;29.60;;
8159;SDS011;27404;52.398;9.646;2023-02-11T00:27:22;60.23;;;27.73;;
8159;SDS011;27404;52.398;9.646;2023-02-11T00:29:47;54.97;;;28.00;;
8159;SDS011;27404;52.398;9.646;2023-02-11T00:32:13;60.33;;;31.23;;
8159;SDS011;27404;52.398;9.646;2023-02-11T00:34:38;57.50;;;30.07;;
8159;SDS011;27404;52.398;9.646;2023-02-11T00:37:04;58.97;;;28.77;;
8159;SDS011;27404;52.398;9.646;2023-02-11T00:39:29;61.37;;;30.53;;
8159;SDS011;27404;52.398;9.646;2023-02-11T00:41:55;63.27;;;31.07;;
8159;SDS011;27404;52.398;9.646;2023-02-11T00:44:20;61.30;;;29.90;;
8159;SDS011;27404;52.398;9.646;2023-02-11T00:46:46;60.23;;;31.13;;
8159;SDS011;27404;52.398;9.646;2023-02-11T00:49:11;59.53;;;29.90;;
8159;SDS011;27404;52.398;9.646;2023-02-11T00:51:37;59.40;;;30.23;;
8159;SDS011;27404;52.398;9.646;2023-02-11T00:54:02;56.23;;;30.20;;
8159;SDS011;27404;52.398;9.646;2023-02-11T00:56:28;63.83;;;31.67;;
8159;SDS011;27404;52.398;9.646;2023-02-11T00:58:54;66.37;;;30.33;;
8159;SDS011;27404;52.398;9.646;2023-02-11T01:01:19;59.67;;;30.83;;
8159;SDS011;27404;52.398;9.646;2023-02-11T01:03:45;63.27;;;31.97;;
8159;SDS011;27404;52.398;9.646;2023-02-11T01:06:10;64.40;;;32.07;;
8159;SDS011;27404;52.398;9.646;2023-02-11T01:08:36;63.47;;;31.40;;
8159;SDS011;27404;52.398;9.646;2023-02-11T01:11:04;66.33;;;33.30;;
8159;SDS011;27404;52.398;9.646;2023-02-11T01:13:33;67.03;;;32.90;;
8159;SDS011;27404;52.398;9.646;2023-02-11T01:16:01;64.67;;;32.27;;
8159;SDS011;27404;52.398;9.646;2023-02-11T01:18:27;67.60;;;33.00;;
8159;SDS011;27404;52.398;9.646;2023-02-11T01:20:53;72.10;;;33.70;;
8159;SDS011;27404;52.398;9.646;2023-02-11T01:23:19;70.33;;;33.70;;
8159;SDS011;27404;52.398;9.646;2023-02-11T01:25:45;71.83;;;36.23;;
8159;SDS011;27404;52.398;9.646;2023-02-11T01:28:24;72.07;;;34.83;;
8159;SDS011;27404;52.398;9.646;2023-02-11T01:30:52;77.27;;;35.93;;
8159;SDS011;27404;52.398;9.646;2023-02-11T01:33:18;72.77;;;36.40;;
8159;SDS011;27404;52.398;9.646;2023-02-11T01:35:44;80.13;;;35.33;;
8159;SDS011;27404;52.398;9.646;2023-02-11T01:38:30;83.87;;;36.53;;
8159;SDS011;27404;52.398;9.646;2023-02-11T01:40:57;79.50;;;36.17;;
8159;SDS011;27404;52.398;9.646;2023-02-11T01:43:27;74.77;;;36.03;;
8159;SDS011;27404;52.398;9.646;2023-02-11T01:48:39;87.60;;;36.53;;
8159;SDS011;27404;52.398;9.646;2023-02-11T01:51:10;84.60;;;37.47;;
8159;SDS011;27404;52.398;9.646;2023-02-11T01:53:38;83.87;;;38.77;;
8159;SDS011;27404;52.398;9.646;2023-02-11T01:56:24;84.60;;;37.80;;
8159;SDS011;27404;52.398;9.646;2023-02-11T01:59:21;84.03;;;38.27;;
8159;SDS011;27404;52.398;9.646;2023-02-11T02:01:55;88.37;;;39.00;;
8159;SDS011;27404;52.398;9.646;2023-02-11T02:04:24;87.83;;;39.60;;
8159;SDS011;27404;52.398;9.646;2023-02-11T02:06:58;79.70;;;36.97;;
8159;SDS011;27404;52.398;9.646;2023-02-11T02:09:43;75.73;;;36.73;;
8159;SDS011;27404;52.398;9.646;2023-02-11T02:12:16;80.50;;;37.50;;
8159;SDS011;27404;52.398;9.646;2023-02-11T02:14:42;83.50;;;37.43;;
8159;SDS011;27404;52.398;9.646;2023-02-11T02:20:28;88.23;;;40.57;;
8159;SDS011;27404;52.398;9.646;2023-02-11T02:25:39;85.33;;;35.93;;
8159;SDS011;27404;52.398;9.646;2023-02-11T02:29:20;93.07;;;36.73;;
8159;SDS011;27404;52.398;9.646;2023-02-11T02:39:36;85.53;;;37.13;;
8159;SDS011;27404;52.398;9.646;2023-02-11T02:42:03;76.00;;;36.07;;
8159;SDS011;27404;52.398;9.646;2023-02-11T02:44:29;85.70;;;36.13;;
8159;SDS011;27404;52.398;9.646;2023-02-11T02:46:55;84.83;;;35.83;;
8159;SDS011;27404;52.398;9.646;2023-02-11T02:49:20;79.10;;;37.30;;
8159;SDS011;27404;52.398;9.646;2023-02-11T03:11:07;72.47;;;33.47;;
8159;SDS011;27404;52.398;9.646;2023-02-11T03:13:35;76.50;;;32.47;;
8159;SDS011;27404;52.398;9.646;2023-02-11T03:16:12;77.47;;;34.23;;
8159;SDS011;27404;52.398;9.646;2023-02-11T03:18:41;83.40;;;33.23;;
8159;SDS011;27404;52.398;9.646;2023-02-11T03:21:10;70.67;;;32.43;;
8159;SDS011;27404;52.398;9.646;2023-02-11T03:23:39;80.80;;;35.07;;
8159;SDS011;27404;52.398;9.646;2023-02-11T03:31:34;80.23;;;34.03;;
8159;SDS011;27404;52.398;9.646;2023-02-11T03:36:41;67.77;;;32.33;;
8159;SDS011;27404;52.398;9.646;2023-02-11T03:39:22;74.67;;;33.00;;
8159;SDS011;27404;52.398;9.646;2023-02-11T03:41:55;74.07;;;31.87;;
8159;SDS011;27404;52.398;9.646;2023-02-11T03:44:24;76.57;;;32.60;;
8159;SDS011;27404;52.398;9.646;2023-02-11T03:46:52;76.73;;;33.40;;
8159;SDS011;27404;52.398;9.646;2023-02-11T03:49:20;69.23;;;32.83;;
8159;SDS011;27404;52.398;9.646;2023-02-11T03:51:47;66.13;;;31.73;;
8159;SDS011;27404;52.398;9.646;2023-02-11T03:54:18;73.17;;;33.03;;
8159;SDS011;27404;52.398;9.646;2023-02-11T03:56:50;72.13;;;31.87;;
8159;SDS011;27404;52.398;9.646;2023-02-11T03:59:18;68.83;;;32.10;;
8159;SDS011;27404;52.398;9.646;2023-02-11T04:01:44;67.67;;;32.70;;
8159;SDS011;27404;52.398;9.646;2023-02-11T04:04:09;78.83;;;34.27;;
8159;SDS011;27404;52.398;9.646;2023-02-11T04:06:35;67.87;;;32.03;;
8159;SDS011;27404;52.398;9.646;2023-02-11T04:09:00;70.93;;;33.77;;
8159;SDS011;27404;52.398;9.646;2023-02-11T04:11:26;81.13;;;34.33;;
8159;SDS011;27404;52.398;9.646;2023-02-11T04:13:52;80.93;;;33.80;;
8159;SDS011;27404;52.398;9.646;2023-02-11T04:16:17;74.93;;;33.63;;
8159;SDS011;27404;52.398;9.646;2023-02-11T04:18:43;68.87;;;33.70;;
8159;SDS011;27404;52.398;9.646;2023-02-11T04:21:08;68.07;;;33.63;;
8159;SDS011;27404;52.398;9.646;2023-02-11T04:23:34;73.37;;;34.40;;
8159;SDS011;27404;52.398;9.646;2023-02-11T04:25:59;74.20;;;35.37;;
8159;SDS011;27404;52.398;9.646;2023-02-11T04:28:24;71.30;;;34.07;;
8159;SDS011;27404;52.398;9.646;2023-02-11T04:30:53;71.63;;;33.90;;
8159;SDS011;27404;52.398;9.646;2023-02-11T04:33:19;72.77;;;35.27;;
8159;SDS011;27404;52.398;9.646;2023-02-11T04:35:45;78.00;;;35.10;;
8159;SDS011;27404;52.398;9.646;2023-02-11T04:38:10;74.37;;;34.20;;
8159;SDS011;27404;52.398;9.646;2023-02-11T04:40:35;71.90;;;32.90;;
8159;SDS011;27404;52.398;9.646;2023-02-11T04:43:01;71.30;;;34.00;;
8159;SDS011;27404;52.398;9.646;2023-02-11T04:45:26;68.77;;;32.57;;
8159;SDS011;27404;52.398;9.646;2023-02-11T04:47:52;70.17;;;33.63;;
8159;SDS011;27404;52.398;9.646;2023-02-11T04:50:17;69.40;;;33.23;;
8159;SDS011;27404;52.398;9.646;2023-02-11T04:52:42;65.30;;;33.53;;
8159;SDS011;27404;52.398;9.646;2023-02-11T04:55:08;74.23;;;34.13;;
8159;SDS011;27404;52.398;9.646;2023-02-11T04:57:33;64.50;;;34.47;;
8159;SDS011;27404;52.398;9.646;2023-02-11T04:59:59;67.73;;;33.43;;
8159;SDS011;27404;52.398;9.646;2023-02-11T05:02:24;67.23;;;33.47;;
8159;SDS011;27404;52.398;9.646;2023-02-11T05:04:50;65.77;;;32.27;;
8159;SDS011;27404;52.398;9.646;2023-02-11T05:07:15;62.20;;;30.97;;
8159;SDS011;27404;52.398;9.646;2023-02-11T05:09:40;67.03;;;32.57;;
8159;SDS011;27404;52.398;9.646;2023-02-11T05:12:06;65.00;;;31.70;;
8159;SDS011;27404;52.398;9.646;2023-02-11T05:14:31;63.20;;;31.60;;
8159;SDS011;27404;52.398;9.646;2023-02-11T05:16:57;62.53;;;29.90;;
8159;SDS011;27404;52.398;9.646;2023-02-11T05:19:22;61.60;;;31.40;;
8159;SDS011;27404;52.398;9.646;2023-02-11T05:21:48;56.93;;;29.67;;
8159;SDS011;27404;52.398;9.646;2023-02-11T05:24:13;55.10;;;29.80;;
8159;SDS011;27404;52.398;9.646;2023-02-11T05:26:39;57.20;;;30.40;;
8159;SDS011;27404;52.398;9.646;2023-02-11T05:29:04;53.27;;;29.00;;
8159;SDS011;27404;52.398;9.646;2023-02-11T05:31:30;57.33;;;30.07;;
8159;SDS011;27404;52.398;9.646;2023-02-11T05:33:56;51.83;;;28.57;;
8159;SDS011;27404;52.398;9.646;2023-02-11T05:36:22;60.77;;;30.57;;
8159;SDS011;27404;52.398;9.646;2023-02-11T05:38:47;59.67;;;29.67;;
8159;SDS011;27404;52.398;9.646;2023-02-11T05:41:14;62.00;;;30.50;;
8159;SDS011;27404;52.398;9.646;2023-02-11T05:43:40;56.23;;;29.57;;
8159;SDS011;27404;52.398;9.646;2023-02-11T05:46:05;58.20;;;30.77;;
8159;SDS011;27404;52.398;9.646;2023-02-11T05:48:31;52.77;;;29.40;;
8159;SDS011;27404;52.398;9.646;2023-02-11T05:50:57;57.07;;;29.53;;
8159;SDS011;27404;52.398;9.646;2023-02-11T05:53:23;56.03;;;30.50;;
8159;SDS011;27404;52.398;9.646;2023-02-11T05:55:48;65.77;;;30.97;;
8159;SDS011;27404;52.398;9.646;2023-02-11T05:58:14;60.00;;;30.50;;
8159;SDS011;27404;52.398;9.646;2023-02-11T06:00:39;65.37;;;31.00;;
8159;SDS011;27404;52.398;9.646;2023-02-11T06:03:05;59.70;;;29.90;;
8159;SDS011;27404;52.398;9.646;2023-02-11T06:05:30;60.70;;;30.27;;
8159;SDS011;27404;52.398;9.646;2023-02-11T06:07:56;65.77;;;32.27;;
8159;SDS011;27404;52.398;9.646;2023-02-11T06:10:22;66.30;;;31.60;;
8159;SDS011;27404;52.398;9.646;2023-02-11T06:12:47;62.27;;;29.70;;
8159;SDS011;27404;52.398;9.646;2023-02-11T06:15:12;53.27;;;27.90;;
8159;SDS011;27404;52.398;9.646;2023-02-11T06:17:38;60.50;;;29.60;;
8159;SDS011;27404;52.398;9.646;2023-02-11T06:20:05;64.83;;;29.90;;
8159;SDS011;27404;52.398;9.646;2023-02-11T06:22:32;55.57;;;27.73;;
8159;SDS011;27404;52.398;9.646;2023-02-11T06:24:57;54.90;;;29.83;;
8159;SDS011;27404;52.398;9.646;2023-02-11T06:27:23;55.07;;;30.03;;
8159;SDS011;27404;52.398;9.646;2023-02-11T06:29:49;65.10;;;28.07;;
8159;SDS011;27404;52.398;9.646;2023-02-11T06:32:16;55.97;;;28.50;;
8159;SDS011;27404;52.398;9.646;2023-02-11T06:34:41;52.43;;;27.93;;
8159;SDS011;27404;52.398;9.646;2023-02-11T06:37:07;57.97;;;29.23;;
8159;SDS011;27404;52.398;9.646;2023-02-11T06:39:32;56.53;;;29.33;;
8159;SDS011;27404;52.398;9.646;2023-02-11T06:41:58;50.07;;;28.73;;
8159;SDS011;27404;52.398;9.646;2023-02-11T06:44:24;56.80;;;29.03;;
8159;SDS011;27404;52.398;9.646;2023-02-11T06:46:49;55.40;;;29.27;;
8159;SDS011;27404;52.398;9.646;2023-02-11T06:49:15;50.97;;;27.50;;
8159;SDS011;27404;52.398;9.646;2023-02-11T06:51:40;55.10;;;29.47;;
8159;SDS011;27404;52.398;9.646;2023-02-11T06:54:06;49.83;;;27.43;;
8159;SDS011;27404;52.398;9.646;2023-02-11T06:56:31;59.47;;;28.87;;
8159;SDS011;27404;52.398;9.646;2023-02-11T06:58:57;50.37;;;26.87;;
8159;SDS011;27404;52.398;9.646;2023-02-11T07:01:24;55.60;;;27.17;;
8159;SDS011;27404;52.398;9.646;2023-02-11T07:03:51;47.47;;;26.03;;
8159;SDS011;27404;52.398;9.646;2023-02-11T07:06:20;52.37;;;27.40;;
8159;SDS011;27404;52.398;9.646;2023-02-11T07:08:48;53.90;;;27.00;;
8159;SDS011;27404;52.398;9.646;2023-02-11T07:11:16;50.57;;;27.50;;
8159;SDS011;27404;52.398;9.646;2023-02-11T07:13:44;54.97;;;28.37;;
8159;SDS011;27404;52.398;9.646;2023-02-11T07:16:12;56.10;;;27.00;;
8159;SDS011;27404;52.398;9.646;2023-02-11T07:18:39;50.90;;;27.97;;
8159;SDS011;27404;52.398;9.646;2023-02-11T07:21:06;50.23;;;25.80;;
8159;SDS011;27404;52.398;9.646;2023-02-11T07:23:33;52.93;;;27.70;;
8159;SDS011;27404;52.398;9.646;2023-02-11T07:26:02;53.80;;;26.40;;
8159;SDS011;27404;52.398;9.646;2023-02-11T07:28:29;60.03;;;27.77;;
8159;SDS011;27404;52.398;9.646;2023-02-11T07:30:54;49.27;;;26.60;;
8159;SDS011;27404;52.398;9.646;2023-02-11T07:33:20;49.87;;;25.33;;
8159;SDS011;27404;52.398;9.646;2023-02-11T07:35:45;50.83;;;26.10;;
8159;SDS011;27404;52.398;9.646;2023-02-11T07:38:11;48.50;;;25.17;;
8159;SDS011;27404;52.398;9.646;2023-02-11T07:40:36;52.80;;;25.53;;
8159;SDS011;27404;52.398;9.646;2023-02-11T07:43:01;46.13;;;27.00;;
8159;SDS011;27404;52.398;9.646;2023-02-11T07:45:27;51.20;;;25.33;;
8159;SDS011;27404;52.398;9.646;2023-02-11T07:47:53;57.40;;;26.03;;
8159;SDS011;27404;52.398;9.646;2023-02-11T07:50:18;46.43;;;26.17;;
8159;SDS011;27404;52.398;9.646;2023-02-11T07:52:43;50.20;;;24.90;;
8159;SDS011;27404;52.398;9.646;2023-02-11T07:55:09;48.83;;;24.83;;
8159;SDS011;27404;52.398;9.646;2023-02-11T07:57:35;52.73;;;26.47;;
8159;SDS011;27404;52.398;9.646;2023-02-11T08:00:01;45.37;;;24.60;;
8159;SDS011;27404;52.398;9.646;2023-02-11T08:02:27;44.50;;;25.37;;
8159;SDS011;27404;52.398;9.646;2023-02-11T08:04:53;49.30;;;26.00;;
8159;SDS011;27404;52.398;9.646;2023-02-11T08:07:18;48.83;;;25.27;;
8159;SDS011;27404;52.398;9.646;2023-02-11T08:09:44;49.43;;;25.07;;
8159;SDS011;27404;52.398;9.646;2023-02-11T08:12:09;56.43;;;24.83;;
8159;SDS011;27404;52.398;9.646;2023-02-11T08:14:35;49.70;;;26.43;;
8159;SDS011;27404;52.398;9.646;2023-02-11T08:17:01;45.50;;;24.43;;
8159;SDS011;27404;52.398;9.646;2023-02-11T08:19:26;47.67;;;24.60;;
8159;SDS011;27404;52.398;9.646;2023-02-11T08:21:54;50.70;;;26.47;;
8159;SDS011;27404;52.398;9.646;2023-02-11T08:24:20;50.23;;;26.43;;
8159;SDS011;27404;52.398;9.646;2023-02-11T08:26:46;54.80;;;26.27;;
8159;SDS011;27404;52.398;9.646;2023-02-11T08:29:13;50.73;;;25.40;;
8159;SDS011;27404;52.398;9.646;2023-02-11T08:31:42;50.17;;;25.23;;
8159;SDS011;27404;52.398;9.646;2023-02-11T08:34:09;44.37;;;24.40;;
8159;SDS011;27404;52.398;9.646;2023-02-11T08:36:36;45.33;;;23.80;;
8159;SDS011;27404;52.398;9.646;2023-02-11T08:39:03;43.60;;;24.13;;
8159;SDS011;27404;52.398;9.646;2023-02-11T08:41:31;44.47;;;24.13;;
8159;SDS011;27404;52.398;9.646;2023-02-11T08:43:58;53.20;;;25.10;;
8159;SDS011;27404;52.398;9.646;2023-02-11T08:46:23;41.60;;;23.00;;
8159;SDS011;27404;52.398;9.646;2023-02-11T08:48:49;56.23;;;25.53;;
8159;SDS011;27404;52.398;9.646;2023-02-11T08:51:18;55.87;;;26.40;;
8159;SDS011;27404;52.398;9.646;2023-02-11T08:53:47;43.93;;;23.60;;
8159;SDS011;27404;52.398;9.646;2023-02-11T08:56:13;47.40;;;24.47;;
8159;SDS011;27404;52.398;9.646;2023-02-11T08:58:40;49.80;;;24.67;;
8159;SDS011;27404;52.398;9.646;2023-02-11T09:01:13;49.63;;;24.13;;
8159;SDS011;27404;52.398;9.646;2023-02-11T09:03:41;44.23;;;24.03;;
8159;SDS011;27404;52.398;9.646;2023-02-11T09:06:07;43.90;;;24.93;;
8159;SDS011;27404;52.398;9.646;2023-02-11T09:08:35;45.20;;;24.37;;
8159;SDS011;27404;52.398;9.646;2023-02-11T09:11:01;57.07;;;25.30;;
8159;SDS011;27404;52.398;9.646;2023-02-11T09:13:26;49.50;;;24.27;;
8159;SDS011;27404;52.398;9.646;2023-02-11T09:15:52;45.43;;;23.83;;
8159;SDS011;27404;52.398;9.646;2023-02-11T09:18:17;46.33;;;24.87;;
8159;SDS011;27404;52.398;9.646;2023-02-11T09:20:43;51.80;;;24.17;;
8159;SDS011;27404;52.398;9.646;2023-02-11T09:23:08;48.80;;;25.07;;
8159;SDS011;27404;52.398;9.646;2023-02-11T09:25:37;48.80;;;25.23;;
8159;SDS011;27404;52.398;9.646;2023-02-11T09:28:04;46.33;;;25.30;;
8159;SDS011;27404;52.398;9.646;2023-02-11T09:30:29;50.03;;;23.87;;
8159;SDS011;27404;52.398;9.646;2023-02-11T09:32:55;51.10;;;23.40;;
8159;SDS011;27404;52.398;9.646;2023-02-11T09:35:20;53.17;;;24.23;;
8159;SDS011;27404;52.398;9.646;2023-02-11T09:37:45;44.43;;;23.00;;
8159;SDS011;27404;52.398;9.646;2023-02-11T09:40:11;47.20;;;23.77;;
8159;SDS011;27404;52.398;9.646;2023-02-11T09:42:40;47.90;;;23.70;;
8159;SDS011;27404;52.398;9.646;2023-02-11T09:45:20;49.27;;;22.57;;
8159;SDS011;27404;52.398;9.646;2023-02-11T09:47:49;47.77;;;24.60;;
8159;SDS011;27404;52.398;9.646;2023-02-11T09:50:17;50.70;;;24.40;;
8159;SDS011;27404;52.398;9.646;2023-02-11T09:55:31;47.80;;;23.57;;
8159;SDS011;27404;52.398;9.646;2023-02-11T09:58:02;45.70;;;24.50;;
8159;SDS011;27404;52.398;9.646;2023-02-11T10:08:22;48.33;;;24.37;;
8159;SDS011;27404;52.398;9.646;2023-02-11T10:11:49;52.10;;;25.67;;
8159;SDS011;27404;52.398;9.646;2023-02-11T10:22:48;48.17;;;25.80;;
8159;SDS011;27404;52.398;9.646;2023-02-11T10:25:24;52.60;;;26.23;;
8159;SDS011;27404;52.398;9.646;2023-02-11T10:27:53;48.47;;;25.33;;
8159;SDS011;27404;52.398;9.646;2023-02-11T10:30:27;53.43;;;26.57;;
8159;SDS011;27404;52.398;9.646;2023-02-11T10:33:05;52.70;;;26.97;;
8159;SDS011;27404;52.398;9.646;2023-02-11T10:35:39;48.20;;;26.00;;
8159;SDS011;27404;52.398;9.646;2023-02-11T10:38:07;57.20;;;26.47;;
8159;SDS011;27404;52.398;9.646;2023-02-11T10:40:34;55.77;;;28.03;;
8159;SDS011;27404;52.398;9.646;2023-02-11T10:43:05;53.40;;;25.37;;
8159;SDS011;27404;52.398;9.646;2023-02-11T10:45:35;59.60;;;27.50;;
8159;SDS011;27404;52.398;9.646;2023-02-11T10:48:04;48.53;;;26.37;;
8159;SDS011;27404;52.398;9.646;2023-02-11T10:50:50;47.73;;;25.90;;
8159;SDS011;27404;52.398;9.646;2023-02-11T10:53:46;53.03;;;26.17;;
8159;SDS011;27404;52.398;9.646;2023-02-11T10:56:22;54.07;;;26.20;;
8159;SDS011;27404;52.398;9.646;2023-02-11T11:04:23;50.03;;;25.33;;
8159;SDS011;27404;52.398;9.646;2023-02-11T11:06:51;59.50;;;26.90;;
8159;SDS011;27404;52.398;9.646;2023-02-11T11:09:29;51.80;;;26.27;;
8159;SDS011;27404;52.398;9.646;2023-02-11T11:12:19;56.70;;;27.07;;
8159;SDS011;27404;52.398;9.646;2023-02-11T11:14:59;48.70;;;24.53;;
8159;SDS011;27404;52.398;9.646;2023-02-11T11:17:27;52.30;;;26.40;;
8159;SDS011;27404;52.398;9.646;2023-02-11T11:20:38;50.93;;;25.93;;
8159;SDS011;27404;52.398;9.646;2023-02-11T11:22:48;55.83;;;26.47;;
8159;SDS011;27404;52.398;9.646;2023-02-11T11:25:23;54.20;;;26.90;;
8159;SDS011;27404;52.398;9.646;2023-02-11T11:27:53;52.97;;;25.40;;
8159;SDS011;27404;52.398;9.646;2023-02-11T11:30:30;49.53;;;25.33;;
8159;SDS011;27404;52.398;9.646;2023-02-11T11:33:02;52.33;;;26.83;;
8159;SDS011;27404;52.398;9.646;2023-02-11T11:35:29;60.07;;;26.80;;
8159;SDS011;27404;52.398;9.646;2023-02-11T11:37:59;53.23;;;24.63;;
8159;SDS011;27404;52.398;9.646;2023-02-11T11:40:28;59.23;;;26.67;;
8159;SDS011;27404;52.398;9.646;2023-02-11T11:43:14;55.00;;;26.80;;
8159;SDS011;27404;52.398;9.646;2023-02-11T11:45:56;50.03;;;26.23;;
8159;SDS011;27404;52.398;9.646;2023-02-11T11:48:27;54.47;;;26.63;;
8159;SDS011;27404;52.398;9.646;2023-02-11T11:51:09;53.13;;;26.33;;
8159;SDS011;27404;52.398;9.646;2023-02-11T11:56:16;47.93;;;25.90;;
8159;SDS011;27404;52.398;9.646;2023-02-11T11:58:45;48.47;;;25.10;;
8159;SDS011;27404;52.398;9.646;2023-02-11T12:06:59;51.77;;;26.17;;
8159;SDS011;27404;52.398;9.646;2023-02-11T12:22:58;52.30;;;26.67;;
8159;SDS011;27404;52.398;9.646;2023-02-11T12:37:15;47.43;;;24.80;;
8159;SDS011;27404;52.398;9.646;2023-02-11T12:43:07;48.53;;;26.97;;
8159;SDS011;27404;52.398;9.646;2023-02-11T12:51:06;45.67;;;24.03;;
8159;SDS011;27404;52.398;9.646;2023-02-11T12:59:46;50.33;;;24.93;;
8159;SDS011;27404;52.398;9.646;2023-02-11T13:02:33;51.80;;;25.40;;
8159;SDS011;27404;52.398;9.646;2023-02-11T13:07:38;49.00;;;27.00;;
8159;SDS011;27404;52.398;9.646;2023-02-11T13:10:24;48.07;;;24.07;;
8159;SDS011;27404;52.398;9.646;2023-02-11T13:12:54;40.93;;;22.53;;
8159;SDS011;27404;52.398;9.646;2023-02-11T13:15:41;45.57;;;23.67;;
8159;SDS011;27404;52.398;9.646;2023-02-11T13:26:09;43.17;;;22.30;;
8159;SDS011;27404;52.398;9.646;2023-02-11T13:32:09;39.53;;;21.30;;
8159;SDS011;27404;52.398;9.646;2023-02-11T13:37:05;35.77;;;20.07;;
8159;SDS011;27404;52.398;9.646;2023-02-11T13:40:02;34.63;;;19.07;;
8159;SDS011;27404;52.398;9.646;2023-02-11T13:47:49;36.63;;;18.30;;
8159;SDS011;27404;52.398;9.646;2023-02-11T13:50:24;33.33;;;18.87;;
8159;SDS011;27404;52.398;9.646;2023-02-11T13:53:01;36.10;;;19.93;;
8159;SDS011;27404;52.398;9.646;2023-02-11T13:55:29;36.63;;;18.57;;
8159;SDS011;27404;52.398;9.646;2023-02-11T13:58:17;34.43;;;18.57;;
8159;SDS011;27404;52.398;9.646;2023-02-11T14:00:58;35.60;;;18.57;;
8159;SDS011;27404;52.398;9.646;2023-02-11T14:08:59;33.17;;;17.57;;
8159;SDS011;27404;52.398;9.646;2023-02-11T14:11:45;33.73;;;17.80;;
8159;SDS011;27404;52.398;9.646;2023-02-11T14:19:41;31.70;;;17.17;;
8159;SDS011;27404;52.398;9.646;2023-02-11T14:27:09;32.37;;;18.03;;
8159;SDS011;27404;52.398;9.646;2023-02-11T14:29:48;38.77;;;20.17;;
8159;SDS011;27404;52.398;9.646;2023-02-11T14:33:08;36.77;;;18.73;;
8159;SDS011;27404;52.398;9.646;2023-02-11T14:43:39;36.57;;;20.10;;
8159;SDS011;27404;52.398;9.646;2023-02-11T14:46:09;38.57;;;18.63;;
8159;SDS011;27404;52.398;9.646;2023-02-11T14:48:35;36.03;;;20.60;;
8159;SDS011;27404;52.398;9.646;2023-02-11T14:51:07;34.13;;;20.80;;
8159;SDS011;27404;52.398;9.646;2023-02-11T14:53:39;41.00;;;20.73;;
8159;SDS011;27404;52.398;9.646;2023-02-11T14:56:23;39.17;;;19.17;;
8159;SDS011;27404;52.398;9.646;2023-02-11T14:58:52;40.00;;;20.37;;
8159;SDS011;27404;52.398;9.646;2023-02-11T15:04:05;39.97;;;20.20;;
8159;SDS011;27404;52.398;9.646;2023-02-11T15:06:56;36.23;;;20.27;;
8159;SDS011;27404;52.398;9.646;2023-02-11T15:09:28;38.53;;;19.77;;
8159;SDS011;27404;52.398;9.646;2023-02-11T15:12:10;37.27;;;20.10;;
8159;SDS011;27404;52.398;9.646;2023-02-11T15:14:47;35.17;;;19.57;;
8159;SDS011;27404;52.398;9.646;2023-02-11T15:17:16;40.53;;;21.40;;
8159;SDS011;27404;52.398;9.646;2023-02-11T15:19:47;38.03;;;21.00;;
8159;SDS011;27404;52.398;9.646;2023-02-11T15:22:30;38.83;;;21.07;;
8159;SDS011;27404;52.398;9.646;2023-02-11T15:30:26;38.80;;;21.27;;
8159;SDS011;27404;52.398;9.646;2023-02-11T15:32:54;37.53;;;20.73;;
8159;SDS011;27404;52.398;9.646;2023-02-11T15:35:44;41.40;;;20.83;;
8159;SDS011;27404;52.398;9.646;2023-02-11T15:38:10;38.90;;;21.77;;
8159;SDS011;27404;52.398;9.646;2023-02-11T15:40:37;42.93;;;22.87;;
8159;SDS011;27404;52.398;9.646;2023-02-11T15:43:04;38.60;;;21.50;;
8159;SDS011;27404;52.398;9.646;2023-02-11T15:50:54;47.43;;;22.57;;
8159;SDS011;27404;52.398;9.646;2023-02-11T15:56:42;48.83;;;24.33;;
8159;SDS011;27404;52.398;9.646;2023-02-11T15:58:46;46.73;;;23.07;;
8159;SDS011;27404;52.398;9.646;2023-02-11T16:01:12;47.33;;;24.00;;
8159;SDS011;27404;52.398;9.646;2023-02-11T16:03:39;47.40;;;23.33;;
8159;SDS011;27404;52.398;9.646;2023-02-11T16:11:56;44.20;;;22.60;;
8159;SDS011;27404;52.398;9.646;2023-02-11T16:16:51;46.03;;;22.30;;
8159;SDS011;27404;52.398;9.646;2023-02-11T16:19:21;46.63;;;23.70;;
8159;SDS011;27404;52.398;9.646;2023-02-11T16:21:48;46.70;;;23.07;;
8159;SDS011;27404;52.398;9.646;2023-02-11T16:24:21;48.90;;;23.03;;
8159;SDS011;27404;52.398;9.646;2023-02-11T16:26:55;43.03;;;23.10;;
8159;SDS011;27404;52.398;9.646;2023-02-11T16:29:27;49.87;;;25.37;;
8159;SDS011;27404;52.398;9.646;2023-02-11T16:32:04;52.47;;;26.67;;
8159;SDS011;27404;52.398;9.646;2023-02-11T16:34:34;48.40;;;24.07;;
8159;SDS011;27404;52.398;9.646;2023-02-11T16:37:01;47.63;;;24.07;;
8159;SDS011;27404;52.398;9.646;2023-02-11T16:39:28;59.37;;;23.63;;
8159;SDS011;27404;52.398;9.646;2023-02-11T16:41:54;49.07;;;23.27;;
8159;SDS011;27404;52.398;9.646;2023-02-11T16:44:20;50.00;;;24.80;;
8159;SDS011;27404;52.398;9.646;2023-02-11T16:46:46;51.03;;;23.57;;
8159;SDS011;27404;52.398;9.646;2023-02-11T16:49:16;45.43;;;24.40;;
8159;SDS011;27404;52.398;9.646;2023-02-11T16:51:46;51.23;;;23.00;;
8159;SDS011;27404;52.398;9.646;2023-02-11T16:54:15;47.33;;;23.10;;
8159;SDS011;27404;52.398;9.646;2023-02-11T16:56:41;51.87;;;26.50;;
8159;SDS011;27404;52.398;9.646;2023-02-11T16:59:07;45.67;;;23.97;;
8159;SDS011;27404;52.398;9.646;2023-02-11T17:01:34;46.93;;;23.37;;
8159;SDS011;27404;52.398;9.646;2023-02-11T17:04:02;41.17;;;21.80;;
8159;SDS011;27404;52.398;9.646;2023-02-11T17:06:28;45.03;;;23.33;;
8159;SDS011;27404;52.398;9.646;2023-02-11T17:08:54;47.33;;;22.77;;
8159;SDS011;27404;52.398;9.646;2023-02-11T17:11:19;46.33;;;23.67;;
8159;SDS011;27404;52.398;9.646;2023-02-11T17:13:45;42.00;;;22.50;;
8159;SDS011;27404;52.398;9.646;2023-02-11T17:16:17;42.87;;;21.70;;
8159;SDS011;27404;52.398;9.646;2023-02-11T17:18:45;44.30;;;23.70;;
8159;SDS011;27404;52.398;9.646;2023-02-11T17:21:11;42.07;;;23.03;;
8159;SDS011;27404;52.398;9.646;2023-02-11T17:23:37;49.20;;;24.00;;
8159;SDS011;27404;52.398;9.646;2023-02-11T17:26:03;43.10;;;22.70;;
8159;SDS011;27404;52.398;9.646;2023-02-11T17:28:29;41.83;;;23.30;;
8159;SDS011;27404;52.398;9.646;2023-02-11T17:30:56;41.93;;;22.30;;
8159;SDS011;27404;52.398;9.646;2023-02-11T17:33:22;48.33;;;22.90;;
8159;SDS011;27404;52.398;9.646;2023-02-11T17:35:47;46.33;;;21.30;;
8159;SDS011;27404;52.398;9.646;2023-02-11T17:38:13;40.70;;;21.53;;
8159;SDS011;27404;52.398;9.646;2023-02-11T17:40:38;44.03;;;23.20;;
8159;SDS011;27404;52.398;9.646;2023-02-11T17:43:04;37.83;;;20.63;;
8159;SDS011;27404;52.398;9.646;2023-02-11T17:45:29;40.07;;;22.03;;
8159;SDS011;27404;52.398;9.646;2023-02-11T17:47:55;43.80;;;22.40;;
8159;SDS011;27404;52.398;9.646;2023-02-11T17:50:20;47.37;;;22.90;;
8159;SDS011;27404;52.398;9.646;2023-02-11T17:52:45;42.57;;;23.93;;